Seattle, Washington
Traffic Map
Current Weather Conditions
Seattle, Washington
Overcast
Overcast
15°
Feels Like: 15°
Wind Chill: 15° Ceiling: 2000
Heat Index: 15° Visibility: 10mi
Dew Point: 10° Wind: 13mph
Humidity: 72% Direction: 170° (S)
Pressure: 29.8in Gusts: 25mph
Raw Report DataKBFI 272156Z 17011G22KT 10SM BKN020 OVC065 15/10 A2980 RMK AO2
Traffic Incident Summary
Active as of:
Severity:
Category:
InformationThere was an issue retrieving the traffic information for this location. Please try a different location or try again shortly.
Advertisements
Track Severe Weather on mobile